sensor_id;sensor_type;location;lat;lon;timestamp;P1;durP1;ratioP1;P2;durP2;ratioP2
39994;SDS011;25686;51.908;10.418;2023-06-04T00:01:52;6.80;;;2.03;;
39994;SDS011;25686;51.908;10.418;2023-06-04T00:03:53;7.78;;;2.13;;
39994;SDS011;25686;51.908;10.418;2023-06-04T00:05:55;3.97;;;2.00;;
39994;SDS011;25686;51.908;10.418;2023-06-04T00:07:56;4.35;;;2.10;;
39994;SDS011;25686;51.908;10.418;2023-06-04T00:09:57;7.43;;;1.98;;
39994;SDS011;25686;51.908;10.418;2023-06-04T00:11:57;4.07;;;2.38;;
39994;SDS011;25686;51.908;10.418;2023-06-04T00:13:58;5.10;;;2.17;;
39994;SDS011;25686;51.908;10.418;2023-06-04T00:15:59;9.52;;;2.40;;
39994;SDS011;25686;51.908;10.418;2023-06-04T00:18:00;5.50;;;2.30;;
39994;SDS011;25686;51.908;10.418;2023-06-04T00:20:01;4.93;;;2.10;;
39994;SDS011;25686;51.908;10.418;2023-06-04T00:22:03;4.90;;;2.10;;
39994;SDS011;25686;51.908;10.418;2023-06-04T00:24:04;4.68;;;2.08;;
39994;SDS011;25686;51.908;10.418;2023-06-04T00:26:05;4.07;;;2.30;;
39994;SDS011;25686;51.908;10.418;2023-06-04T00:28:05;5.90;;;2.25;;
39994;SDS011;25686;51.908;10.418;2023-06-04T00:30:07;4.05;;;2.03;;
39994;SDS011;25686;51.908;10.418;2023-06-04T00:32:08;6.25;;;1.90;;
39994;SDS011;25686;51.908;10.418;2023-06-04T00:34:10;5.55;;;2.30;;
39994;SDS011;25686;51.908;10.418;2023-06-04T00:36:11;3.10;;;1.90;;
39994;SDS011;25686;51.908;10.418;2023-06-04T00:38:12;6.32;;;2.70;;
39994;SDS011;25686;51.908;10.418;2023-06-04T00:40:12;4.32;;;2.08;;
39994;SDS011;25686;51.908;10.418;2023-06-04T00:42:14;3.65;;;2.13;;
39994;SDS011;25686;51.908;10.418;2023-06-04T00:44:15;4.13;;;2.00;;
39994;SDS011;25686;51.908;10.418;2023-06-04T00:46:16;2.58;;;1.92;;
39994;SDS011;25686;51.908;10.418;2023-06-04T00:48:18;3.25;;;2.13;;
39994;SDS011;25686;51.908;10.418;2023-06-04T00:50:19;6.00;;;2.10;;
39994;SDS011;25686;51.908;10.418;2023-06-04T00:52:21;5.20;;;2.28;;
39994;SDS011;25686;51.908;10.418;2023-06-04T00:54:22;4.75;;;2.50;;
39994;SDS011;25686;51.908;10.418;2023-06-04T00:56:24;4.22;;;2.10;;
39994;SDS011;25686;51.908;10.418;2023-06-04T00:58:25;4.50;;;2.45;;
39994;SDS011;25686;51.908;10.418;2023-06-04T01:00:26;4.28;;;2.38;;
39994;SDS011;25686;51.908;10.418;2023-06-04T01:02:27;7.80;;;2.22;;
39994;SDS011;25686;51.908;10.418;2023-06-04T01:04:34;4.03;;;2.30;;
39994;SDS011;25686;51.908;10.418;2023-06-04T01:06:38;7.55;;;2.22;;
39994;SDS011;25686;51.908;10.418;2023-06-04T01:08:39;4.53;;;2.22;;
39994;SDS011;25686;51.908;10.418;2023-06-04T01:10:50;2.95;;;2.25;;
39994;SDS011;25686;51.908;10.418;2023-06-04T01:12:51;3.95;;;2.38;;
39994;SDS011;25686;51.908;10.418;2023-06-04T01:14:52;3.17;;;2.13;;
39994;SDS011;25686;51.908;10.418;2023-06-04T01:16:56;3.97;;;2.60;;
39994;SDS011;25686;51.908;10.418;2023-06-04T01:19:02;5.13;;;2.40;;
39994;SDS011;25686;51.908;10.418;2023-06-04T01:21:08;6.40;;;3.00;;
39994;SDS011;25686;51.908;10.418;2023-06-04T01:23:32;4.32;;;2.53;;
39994;SDS011;25686;51.908;10.418;2023-06-04T01:25:35;6.53;;;2.67;;
39994;SDS011;25686;51.908;10.418;2023-06-04T01:27:38;9.93;;;2.92;;
39994;SDS011;25686;51.908;10.418;2023-06-04T01:29:40;4.55;;;2.92;;
39994;SDS011;25686;51.908;10.418;2023-06-04T01:31:41;5.07;;;3.00;;
39994;SDS011;25686;51.908;10.418;2023-06-04T01:33:42;8.57;;;3.13;;
39994;SDS011;25686;51.908;10.418;2023-06-04T01:35:43;6.18;;;3.28;;
39994;SDS011;25686;51.908;10.418;2023-06-04T01:37:44;6.05;;;3.05;;
39994;SDS011;25686;51.908;10.418;2023-06-04T01:39:45;4.50;;;3.33;;
39994;SDS011;25686;51.908;10.418;2023-06-04T01:41:46;6.28;;;3.28;;
39994;SDS011;25686;51.908;10.418;2023-06-04T01:43:47;4.32;;;2.80;;
39994;SDS011;25686;51.908;10.418;2023-06-04T01:45:47;8.25;;;3.58;;
39994;SDS011;25686;51.908;10.418;2023-06-04T01:47:49;5.55;;;3.00;;
39994;SDS011;25686;51.908;10.418;2023-06-04T01:49:50;4.18;;;3.28;;
39994;SDS011;25686;51.908;10.418;2023-06-04T01:51:51;8.85;;;3.30;;
39994;SDS011;25686;51.908;10.418;2023-06-04T01:53:52;7.75;;;3.65;;
39994;SDS011;25686;51.908;10.418;2023-06-04T01:55:53;7.70;;;3.38;;
39994;SDS011;25686;51.908;10.418;2023-06-04T01:57:54;8.55;;;3.75;;
39994;SDS011;25686;51.908;10.418;2023-06-04T01:59:56;7.10;;;3.50;;
39994;SDS011;25686;51.908;10.418;2023-06-04T02:01:57;7.75;;;3.53;;
39994;SDS011;25686;51.908;10.418;2023-06-04T02:03:58;7.32;;;3.67;;
39994;SDS011;25686;51.908;10.418;2023-06-04T02:05:59;5.25;;;3.13;;
39994;SDS011;25686;51.908;10.418;2023-06-04T02:07:59;5.60;;;3.15;;
39994;SDS011;25686;51.908;10.418;2023-06-04T02:10:01;7.43;;;3.38;;
39994;SDS011;25686;51.908;10.418;2023-06-04T02:12:03;7.32;;;3.33;;
39994;SDS011;25686;51.908;10.418;2023-06-04T02:14:04;6.18;;;2.95;;
39994;SDS011;25686;51.908;10.418;2023-06-04T02:16:05;8.00;;;3.40;;
39994;SDS011;25686;51.908;10.418;2023-06-04T02:18:16;4.85;;;3.15;;
39994;SDS011;25686;51.908;10.418;2023-06-04T02:20:18;6.95;;;3.10;;
39994;SDS011;25686;51.908;10.418;2023-06-04T02:22:19;4.20;;;3.15;;
39994;SDS011;25686;51.908;10.418;2023-06-04T02:24:20;7.00;;;3.70;;
39994;SDS011;25686;51.908;10.418;2023-06-04T02:26:21;7.03;;;3.92;;
39994;SDS011;25686;51.908;10.418;2023-06-04T02:28:23;5.95;;;3.70;;
39994;SDS011;25686;51.908;10.418;2023-06-04T02:30:24;6.50;;;3.40;;
39994;SDS011;25686;51.908;10.418;2023-06-04T02:32:25;7.32;;;3.78;;
39994;SDS011;25686;51.908;10.418;2023-06-04T02:34:26;5.72;;;3.72;;
39994;SDS011;25686;51.908;10.418;2023-06-04T02:36:28;13.50;;;4.03;;
39994;SDS011;25686;51.908;10.418;2023-06-04T02:38:30;8.02;;;3.90;;
39994;SDS011;25686;51.908;10.418;2023-06-04T02:40:31;5.93;;;3.45;;
39994;SDS011;25686;51.908;10.418;2023-06-04T02:42:32;7.00;;;3.50;;
39994;SDS011;25686;51.908;10.418;2023-06-04T02:44:32;6.75;;;3.33;;
39994;SDS011;25686;51.908;10.418;2023-06-04T02:46:33;4.55;;;3.25;;
39994;SDS011;25686;51.908;10.418;2023-06-04T02:48:34;8.10;;;3.90;;
39994;SDS011;25686;51.908;10.418;2023-06-04T02:50:35;6.60;;;3.92;;
39994;SDS011;25686;51.908;10.418;2023-06-04T02:52:36;6.88;;;3.45;;
39994;SDS011;25686;51.908;10.418;2023-06-04T02:54:37;6.68;;;3.65;;
39994;SDS011;25686;51.908;10.418;2023-06-04T02:56:38;10.18;;;3.78;;
39994;SDS011;25686;51.908;10.418;2023-06-04T02:58:53;6.55;;;3.38;;
39994;SDS011;25686;51.908;10.418;2023-06-04T03:00:55;5.22;;;3.30;;
39994;SDS011;25686;51.908;10.418;2023-06-04T03:02:56;6.63;;;3.30;;
39994;SDS011;25686;51.908;10.418;2023-06-04T03:05:01;5.25;;;3.25;;
39994;SDS011;25686;51.908;10.418;2023-06-04T03:07:02;6.68;;;3.60;;
39994;SDS011;25686;51.908;10.418;2023-06-04T03:09:04;7.55;;;3.10;;
39994;SDS011;25686;51.908;10.418;2023-06-04T03:11:05;5.47;;;3.30;;
39994;SDS011;25686;51.908;10.418;2023-06-04T03:13:06;5.03;;;3.20;;
39994;SDS011;25686;51.908;10.418;2023-06-04T03:15:07;5.38;;;3.33;;
39994;SDS011;25686;51.908;10.418;2023-06-04T03:17:08;8.55;;;3.47;;
39994;SDS011;25686;51.908;10.418;2023-06-04T03:19:12;4.72;;;3.17;;
39994;SDS011;25686;51.908;10.418;2023-06-04T03:21:13;4.40;;;3.00;;
39994;SDS011;25686;51.908;10.418;2023-06-04T03:23:14;6.82;;;3.25;;
39994;SDS011;25686;51.908;10.418;2023-06-04T03:25:15;7.03;;;3.28;;
39994;SDS011;25686;51.908;10.418;2023-06-04T03:27:16;6.25;;;3.25;;
39994;SDS011;25686;51.908;10.418;2023-06-04T03:29:17;5.45;;;3.30;;
39994;SDS011;25686;51.908;10.418;2023-06-04T03:31:18;6.43;;;3.20;;
39994;SDS011;25686;51.908;10.418;2023-06-04T03:33:19;5.25;;;3.10;;
39994;SDS011;25686;51.908;10.418;2023-06-04T03:35:20;5.05;;;3.03;;
39994;SDS011;25686;51.908;10.418;2023-06-04T03:37:21;7.70;;;3.22;;
39994;SDS011;25686;51.908;10.418;2023-06-04T03:39:22;5.35;;;3.05;;
39994;SDS011;25686;51.908;10.418;2023-06-04T03:41:23;5.30;;;3.00;;
39994;SDS011;25686;51.908;10.418;2023-06-04T03:43:26;6.18;;;3.00;;
39994;SDS011;25686;51.908;10.418;2023-06-04T03:45:27;5.70;;;2.78;;
39994;SDS011;25686;51.908;10.418;2023-06-04T03:47:27;14.05;;;2.72;;
39994;SDS011;25686;51.908;10.418;2023-06-04T03:49:28;4.82;;;2.65;;
39994;SDS011;25686;51.908;10.418;2023-06-04T03:51:29;5.32;;;2.42;;
39994;SDS011;25686;51.908;10.418;2023-06-04T03:53:30;6.57;;;2.42;;
39994;SDS011;25686;51.908;10.418;2023-06-04T03:55:31;7.47;;;2.67;;
39994;SDS011;25686;51.908;10.418;2023-06-04T03:57:32;8.05;;;2.53;;
39994;SDS011;25686;51.908;10.418;2023-06-04T03:59:33;3.72;;;2.28;;
39994;SDS011;25686;51.908;10.418;2023-06-04T04:01:35;4.95;;;2.70;;
39994;SDS011;25686;51.908;10.418;2023-06-04T04:03:36;9.88;;;2.65;;
39994;SDS011;25686;51.908;10.418;2023-06-04T04:05:37;4.35;;;2.47;;
39994;SDS011;25686;51.908;10.418;2023-06-04T04:07:38;4.28;;;2.05;;
39994;SDS011;25686;51.908;10.418;2023-06-04T04:09:39;3.63;;;2.60;;
39994;SDS011;25686;51.908;10.418;2023-06-04T04:11:40;5.78;;;2.53;;
39994;SDS011;25686;51.908;10.418;2023-06-04T04:13:41;3.42;;;2.22;;
39994;SDS011;25686;51.908;10.418;2023-06-04T04:15:42;5.90;;;2.72;;
39994;SDS011;25686;51.908;10.418;2023-06-04T04:17:43;8.27;;;2.45;;
39994;SDS011;25686;51.908;10.418;2023-06-04T04:19:44;3.13;;;2.15;;
39994;SDS011;25686;51.908;10.418;2023-06-04T04:21:45;5.13;;;2.40;;
39994;SDS011;25686;51.908;10.418;2023-06-04T04:23:48;5.50;;;2.45;;
39994;SDS011;25686;51.908;10.418;2023-06-04T04:25:50;4.65;;;2.10;;
39994;SDS011;25686;51.908;10.418;2023-06-04T04:27:51;5.75;;;2.40;;
39994;SDS011;25686;51.908;10.418;2023-06-04T04:29:52;3.50;;;2.13;;
39994;SDS011;25686;51.908;10.418;2023-06-04T04:32:00;2.95;;;2.10;;
39994;SDS011;25686;51.908;10.418;2023-06-04T04:34:11;3.58;;;2.28;;
39994;SDS011;25686;51.908;10.418;2023-06-04T04:36:12;4.72;;;2.30;;
39994;SDS011;25686;51.908;10.418;2023-06-04T04:38:13;3.05;;;2.05;;
39994;SDS011;25686;51.908;10.418;2023-06-04T04:40:17;3.13;;;2.20;;
39994;SDS011;25686;51.908;10.418;2023-06-04T04:42:18;4.90;;;2.10;;
39994;SDS011;25686;51.908;10.418;2023-06-04T04:44:19;6.40;;;2.17;;
39994;SDS011;25686;51.908;10.418;2023-06-04T04:46:20;3.33;;;1.85;;
39994;SDS011;25686;51.908;10.418;2023-06-04T04:48:21;3.60;;;1.60;;
39994;SDS011;25686;51.908;10.418;2023-06-04T04:50:22;3.35;;;1.58;;
39994;SDS011;25686;51.908;10.418;2023-06-04T04:52:23;3.83;;;1.75;;
39994;SDS011;25686;51.908;10.418;2023-06-04T04:54:24;3.08;;;1.70;;
39994;SDS011;25686;51.908;10.418;2023-06-04T04:56:25;4.18;;;1.98;;
39994;SDS011;25686;51.908;10.418;2023-06-04T04:58:26;2.13;;;1.70;;
39994;SDS011;25686;51.908;10.418;2023-06-04T05:00:28;4.38;;;1.70;;
39994;SDS011;25686;51.908;10.418;2023-06-04T05:02:30;2.70;;;1.58;;
39994;SDS011;25686;51.908;10.418;2023-06-04T05:04:31;4.22;;;1.90;;
39994;SDS011;25686;51.908;10.418;2023-06-04T05:06:32;4.32;;;2.10;;
39994;SDS011;25686;51.908;10.418;2023-06-04T05:08:32;4.30;;;1.90;;
39994;SDS011;25686;51.908;10.418;2023-06-04T05:10:33;3.55;;;1.80;;
39994;SDS011;25686;51.908;10.418;2023-06-04T05:12:35;4.13;;;1.80;;
39994;SDS011;25686;51.908;10.418;2023-06-04T05:14:36;4.45;;;1.80;;
39994;SDS011;25686;51.908;10.418;2023-06-04T05:16:37;3.25;;;1.80;;
39994;SDS011;25686;51.908;10.418;2023-06-04T05:18:41;3.97;;;2.08;;
39994;SDS011;25686;51.908;10.418;2023-06-04T05:20:44;4.15;;;1.80;;
39994;SDS011;25686;51.908;10.418;2023-06-04T05:22:45;2.58;;;1.77;;
39994;SDS011;25686;51.908;10.418;2023-06-04T05:24:46;3.13;;;1.90;;
39994;SDS011;25686;51.908;10.418;2023-06-04T05:26:47;3.80;;;2.25;;
39994;SDS011;25686;51.908;10.418;2023-06-04T05:28:51;6.45;;;2.65;;
39994;SDS011;25686;51.908;10.418;2023-06-04T05:30:52;5.03;;;2.22;;
39994;SDS011;25686;51.908;10.418;2023-06-04T05:32:58;6.32;;;2.47;;
39994;SDS011;25686;51.908;10.418;2023-06-04T05:34:59;6.47;;;2.75;;
39994;SDS011;25686;51.908;10.418;2023-06-04T05:37:04;7.43;;;2.33;;
39994;SDS011;25686;51.908;10.418;2023-06-04T05:39:08;5.28;;;2.40;;
39994;SDS011;25686;51.908;10.418;2023-06-04T05:41:10;4.72;;;2.25;;
39994;SDS011;25686;51.908;10.418;2023-06-04T05:43:12;5.50;;;2.35;;
39994;SDS011;25686;51.908;10.418;2023-06-04T05:45:13;5.80;;;2.80;;
39994;SDS011;25686;51.908;10.418;2023-06-04T05:47:15;4.40;;;2.50;;
39994;SDS011;25686;51.908;10.418;2023-06-04T05:49:16;4.63;;;2.03;;
39994;SDS011;25686;51.908;10.418;2023-06-04T05:51:17;6.70;;;2.10;;
39994;SDS011;25686;51.908;10.418;2023-06-04T05:53:18;4.72;;;2.42;;
39994;SDS011;25686;51.908;10.418;2023-06-04T05:55:19;5.45;;;2.67;;
39994;SDS011;25686;51.908;10.418;2023-06-04T05:57:21;6.28;;;2.65;;
39994;SDS011;25686;51.908;10.418;2023-06-04T05:59:22;7.80;;;2.13;;
39994;SDS011;25686;51.908;10.418;2023-06-04T06:01:23;5.78;;;2.28;;
39994;SDS011;25686;51.908;10.418;2023-06-04T06:03:24;6.15;;;2.38;;
39994;SDS011;25686;51.908;10.418;2023-06-04T06:05:27;4.20;;;2.00;;
39994;SDS011;25686;51.908;10.418;2023-06-04T06:07:28;8.20;;;1.92;;
39994;SDS011;25686;51.908;10.418;2023-06-04T06:09:29;8.02;;;2.50;;
39994;SDS011;25686;51.908;10.418;2023-06-04T06:11:30;6.20;;;2.20;;
39994;SDS011;25686;51.908;10.418;2023-06-04T06:13:31;5.53;;;1.90;;
39994;SDS011;25686;51.908;10.418;2023-06-04T06:15:32;3.92;;;1.67;;
39994;SDS011;25686;51.908;10.418;2023-06-04T06:17:33;3.42;;;1.88;;
39994;SDS011;25686;51.908;10.418;2023-06-04T06:19:36;3.03;;;1.80;;
39994;SDS011;25686;51.908;10.418;2023-06-04T06:21:37;5.22;;;1.98;;
39994;SDS011;25686;51.908;10.418;2023-06-04T06:23:38;2.75;;;1.90;;
39994;SDS011;25686;51.908;10.418;2023-06-04T06:25:39;3.13;;;1.90;;
39994;SDS011;25686;51.908;10.418;2023-06-04T06:27:40;3.75;;;2.00;;
39994;SDS011;25686;51.908;10.418;2023-06-04T06:29:41;3.70;;;2.00;;
39994;SDS011;25686;51.908;10.418;2023-06-04T06:31:42;5.18;;;1.90;;
39994;SDS011;25686;51.908;10.418;2023-06-04T06:33:43;3.22;;;2.00;;
39994;SDS011;25686;51.908;10.418;2023-06-04T06:35:44;8.30;;;2.08;;
39994;SDS011;25686;51.908;10.418;2023-06-04T06:37:46;4.22;;;2.17;;
39994;SDS011;25686;51.908;10.418;2023-06-04T06:39:47;4.28;;;2.17;;
39994;SDS011;25686;51.908;10.418;2023-06-04T06:41:48;4.82;;;2.10;;
39994;SDS011;25686;51.908;10.418;2023-06-04T06:43:49;3.38;;;1.80;;
39994;SDS011;25686;51.908;10.418;2023-06-04T06:45:50;2.40;;;1.55;;
39994;SDS011;25686;51.908;10.418;2023-06-04T06:47:51;5.38;;;2.20;;
39994;SDS011;25686;51.908;10.418;2023-06-04T06:49:52;4.65;;;2.25;;
39994;SDS011;25686;51.908;10.418;2023-06-04T06:51:54;6.80;;;2.38;;
39994;SDS011;25686;51.908;10.418;2023-06-04T06:53:55;3.38;;;2.33;;
39994;SDS011;25686;51.908;10.418;2023-06-04T06:55:56;4.07;;;2.33;;
39994;SDS011;25686;51.908;10.418;2023-06-04T06:57:57;3.55;;;2.50;;
39994;SDS011;25686;51.908;10.418;2023-06-04T06:59:58;4.55;;;2.17;;
39994;SDS011;25686;51.908;10.418;2023-06-04T07:01:59;4.85;;;2.13;;
39994;SDS011;25686;51.908;10.418;2023-06-04T07:04:00;4.07;;;2.40;;
39994;SDS011;25686;51.908;10.418;2023-06-04T07:06:01;9.25;;;2.28;;
39994;SDS011;25686;51.908;10.418;2023-06-04T07:08:02;5.95;;;2.42;;
39994;SDS011;25686;51.908;10.418;2023-06-04T07:10:03;5.00;;;2.33;;
39994;SDS011;25686;51.908;10.418;2023-06-04T07:12:04;3.88;;;2.28;;
39994;SDS011;25686;51.908;10.418;2023-06-04T07:14:06;5.15;;;2.65;;
39994;SDS011;25686;51.908;10.418;2023-06-04T07:16:07;3.72;;;2.38;;
39994;SDS011;25686;51.908;10.418;2023-06-04T07:18:08;6.18;;;2.70;;
39994;SDS011;25686;51.908;10.418;2023-06-04T07:20:09;7.85;;;2.72;;
39994;SDS011;25686;51.908;10.418;2023-06-04T07:22:10;9.57;;;3.00;;
39994;SDS011;25686;51.908;10.418;2023-06-04T07:24:11;6.82;;;3.00;;
39994;SDS011;25686;51.908;10.418;2023-06-04T07:26:12;6.00;;;2.90;;
39994;SDS011;25686;51.908;10.418;2023-06-04T07:28:13;4.93;;;2.42;;
39994;SDS011;25686;51.908;10.418;2023-06-04T07:30:15;10.68;;;3.05;;
39994;SDS011;25686;51.908;10.418;2023-06-04T07:32:15;5.05;;;2.55;;
39994;SDS011;25686;51.908;10.418;2023-06-04T07:34:16;4.80;;;2.78;;
39994;SDS011;25686;51.908;10.418;2023-06-04T07:36:17;4.63;;;2.30;;
39994;SDS011;25686;51.908;10.418;2023-06-04T07:38:18;3.03;;;2.22;;
39994;SDS011;25686;51.908;10.418;2023-06-04T07:40:20;3.67;;;2.40;;
39994;SDS011;25686;51.908;10.418;2023-06-04T07:42:21;4.63;;;2.80;;
39994;SDS011;25686;51.908;10.418;2023-06-04T07:44:22;5.07;;;2.25;;
39994;SDS011;25686;51.908;10.418;2023-06-04T07:46:23;4.88;;;2.40;;
39994;SDS011;25686;51.908;10.418;2023-06-04T07:48:24;4.05;;;2.40;;
39994;SDS011;25686;51.908;10.418;2023-06-04T07:50:30;5.18;;;2.45;;
39994;SDS011;25686;51.908;10.418;2023-06-04T07:52:31;4.43;;;2.05;;
39994;SDS011;25686;51.908;10.418;2023-06-04T07:54:32;4.35;;;2.45;;
39994;SDS011;25686;51.908;10.418;2023-06-04T07:56:33;4.47;;;1.52;;
39994;SDS011;25686;51.908;10.418;2023-06-04T07:58:35;2.92;;;2.00;;
39994;SDS011;25686;51.908;10.418;2023-06-04T08:00:36;4.93;;;2.03;;
39994;SDS011;25686;51.908;10.418;2023-06-04T08:02:37;4.70;;;2.10;;
39994;SDS011;25686;51.908;10.418;2023-06-04T08:04:38;5.10;;;1.50;;
39994;SDS011;25686;51.908;10.418;2023-06-04T08:06:39;2.50;;;1.40;;
39994;SDS011;25686;51.908;10.418;2023-06-04T08:08:42;2.50;;;1.65;;
39994;SDS011;25686;51.908;10.418;2023-06-04T08:10:48;3.60;;;1.70;;
39994;SDS011;25686;51.908;10.418;2023-06-04T08:12:49;2.58;;;1.70;;
39994;SDS011;25686;51.908;10.418;2023-06-04T08:14:50;5.28;;;1.60;;
39994;SDS011;25686;51.908;10.418;2023-06-04T08:16:51;4.43;;;1.55;;
39994;SDS011;25686;51.908;10.418;2023-06-04T08:18:52;5.35;;;1.80;;
39994;SDS011;25686;51.908;10.418;2023-06-04T08:20:53;7.35;;;1.60;;
39994;SDS011;25686;51.908;10.418;2023-06-04T08:22:54;5.95;;;1.50;;
39994;SDS011;25686;51.908;10.418;2023-06-04T08:24:55;2.42;;;1.40;;
39994;SDS011;25686;51.908;10.418;2023-06-04T08:26:56;3.08;;;1.20;;
39994;SDS011;25686;51.908;10.418;2023-06-04T08:28:57;4.25;;;1.17;;
39994;SDS011;25686;51.908;10.418;2023-06-04T08:30:58;3.67;;;1.40;;
39994;SDS011;25686;51.908;10.418;2023-06-04T08:32:59;4.07;;;1.30;;
39994;SDS011;25686;51.908;10.418;2023-06-04T08:35:00;5.90;;;1.30;;
39994;SDS011;25686;51.908;10.418;2023-06-04T08:37:01;3.78;;;1.40;;
39994;SDS011;25686;51.908;10.418;2023-06-04T08:39:02;4.93;;;1.27;;
39994;SDS011;25686;51.908;10.418;2023-06-04T08:43:30;1.92;;;1.42;;
39994;SDS011;25686;51.908;10.418;2023-06-04T08:45:37;4.60;;;1.30;;
39994;SDS011;25686;51.908;10.418;2023-06-04T08:47:43;5.03;;;1.38;;
39994;SDS011;25686;51.908;10.418;2023-06-04T08:49:47;2.50;;;1.20;;
39994;SDS011;25686;51.908;10.418;2023-06-04T08:51:49;1.75;;;1.20;;
39994;SDS011;25686;51.908;10.418;2023-06-04T08:53:50;2.25;;;1.40;;
39994;SDS011;25686;51.908;10.418;2023-06-04T08:55:53;3.40;;;1.20;;
39994;SDS011;25686;51.908;10.418;2023-06-04T08:57:55;2.83;;;1.17;;
39994;SDS011;25686;51.908;10.418;2023-06-04T08:59:55;2.00;;;1.20;;
39994;SDS011;25686;51.908;10.418;2023-06-04T09:01:57;2.50;;;1.50;;
39994;SDS011;25686;51.908;10.418;2023-06-04T09:04:00;4.50;;;1.40;;
39994;SDS011;25686;51.908;10.418;2023-06-04T09:06:02;4.32;;;1.40;;
39994;SDS011;25686;51.908;10.418;2023-06-04T09:08:04;3.70;;;1.35;;
39994;SDS011;25686;51.908;10.418;2023-06-04T09:10:09;5.15;;;1.40;;
39994;SDS011;25686;51.908;10.418;2023-06-04T09:12:12;6.28;;;1.45;;
39994;SDS011;25686;51.908;10.418;2023-06-04T09:14:16;2.95;;;1.40;;
39994;SDS011;25686;51.908;10.418;2023-06-04T09:16:17;3.10;;;1.27;;
39994;SDS011;25686;51.908;10.418;2023-06-04T09:18:18;4.13;;;1.40;;
39994;SDS011;25686;51.908;10.418;2023-06-04T09:20:22;3.42;;;1.48;;
39994;SDS011;25686;51.908;10.418;2023-06-04T09:22:33;4.25;;;1.40;;
39994;SDS011;25686;51.908;10.418;2023-06-04T09:24:41;3.15;;;1.42;;
39994;SDS011;25686;51.908;10.418;2023-06-04T09:26:42;4.05;;;1.60;;
39994;SDS011;25686;51.908;10.418;2023-06-04T09:28:44;4.32;;;1.45;;
39994;SDS011;25686;51.908;10.418;2023-06-04T09:30:52;1.70;;;1.52;;
39994;SDS011;25686;51.908;10.418;2023-06-04T09:32:53;3.20;;;1.50;;
39994;SDS011;25686;51.908;10.418;2023-06-04T09:34:54;2.60;;;1.45;;
39994;SDS011;25686;51.908;10.418;2023-06-04T09:36:58;2.95;;;1.45;;
39994;SDS011;25686;51.908;10.418;2023-06-04T09:38:59;1.67;;;1.25;;
39994;SDS011;25686;51.908;10.418;2023-06-04T09:41:01;4.57;;;1.40;;
39994;SDS011;25686;51.908;10.418;2023-06-04T09:43:04;3.08;;;1.40;;
39994;SDS011;25686;51.908;10.418;2023-06-04T09:45:06;2.78;;;1.30;;
39994;SDS011;25686;51.908;10.418;2023-06-04T09:47:07;1.95;;;1.33;;
39994;SDS011;25686;51.908;10.418;2023-06-04T09:49:08;3.97;;;1.35;;
39994;SDS011;25686;51.908;10.418;2023-06-04T09:51:12;2.45;;;1.30;;
39994;SDS011;25686;51.908;10.418;2023-06-04T09:53:16;3.10;;;1.60;;
39994;SDS011;25686;51.908;10.418;2023-06-04T09:55:17;3.40;;;1.20;;
39994;SDS011;25686;51.908;10.418;2023-06-04T09:57:20;2.55;;;1.20;;
39994;SDS011;25686;51.908;10.418;2023-06-04T09:59:21;4.10;;;1.30;;
39994;SDS011;25686;51.908;10.418;2023-06-04T10:01:22;3.67;;;1.20;;
39994;SDS011;25686;51.908;10.418;2023-06-04T10:03:24;2.92;;;1.20;;
39994;SDS011;25686;51.908;10.418;2023-06-04T10:05:26;1.88;;;1.40;;
39994;SDS011;25686;51.908;10.418;2023-06-04T10:07:29;2.38;;;1.23;;
39994;SDS011;25686;51.908;10.418;2023-06-04T10:09:30;3.30;;;1.20;;
39994;SDS011;25686;51.908;10.418;2023-06-04T10:11:34;3.20;;;1.15;;
39994;SDS011;25686;51.908;10.418;2023-06-04T10:13:38;6.13;;;1.30;;
39994;SDS011;25686;51.908;10.418;2023-06-04T10:15:41;3.17;;;1.27;;
39994;SDS011;25686;51.908;10.418;2023-06-04T10:17:43;6.40;;;1.27;;
39994;SDS011;25686;51.908;10.418;2023-06-04T10:19:44;4.00;;;1.45;;
39994;SDS011;25686;51.908;10.418;2023-06-04T10:21:45;4.32;;;1.35;;
39994;SDS011;25686;51.908;10.418;2023-06-04T10:23:46;3.78;;;1.40;;
39994;SDS011;25686;51.908;10.418;2023-06-04T10:25:49;3.15;;;1.13;;
39994;SDS011;25686;51.908;10.418;2023-06-04T10:27:52;3.53;;;1.30;;
39994;SDS011;25686;51.908;10.418;2023-06-04T10:29:53;4.20;;;1.25;;
39994;SDS011;25686;51.908;10.418;2023-06-04T10:31:55;2.65;;;1.50;;
39994;SDS011;25686;51.908;10.418;2023-06-04T10:33:56;7.40;;;1.40;;
39994;SDS011;25686;51.908;10.418;2023-06-04T10:35:57;4.50;;;1.30;;
39994;SDS011;25686;51.908;10.418;2023-06-04T10:38:11;4.00;;;1.70;;
39994;SDS011;25686;51.908;10.418;2023-06-04T10:40:13;3.30;;;1.20;;
39994;SDS011;25686;51.908;10.418;2023-06-04T10:42:14;1.60;;;1.20;;
39994;SDS011;25686;51.908;10.418;2023-06-04T10:44:16;3.47;;;1.50;;
39994;SDS011;25686;51.908;10.418;2023-06-04T10:46:19;6.30;;;1.60;;
39994;SDS011;25686;51.908;10.418;2023-06-04T10:48:20;4.70;;;1.60;;
39994;SDS011;25686;51.908;10.418;2023-06-04T10:50:21;3.08;;;1.27;;
39994;SDS011;25686;51.908;10.418;2023-06-04T10:52:22;2.50;;;1.30;;
39994;SDS011;25686;51.908;10.418;2023-06-04T10:54:23;2.10;;;1.38;;
39994;SDS011;25686;51.908;10.418;2023-06-04T10:56:26;2.53;;;1.15;;
39994;SDS011;25686;51.908;10.418;2023-06-04T10:58:31;3.10;;;1.30;;
39994;SDS011;25686;51.908;10.418;2023-06-04T11:00:39;7.28;;;1.30;;
39994;SDS011;25686;51.908;10.418;2023-06-04T11:02:50;1.73;;;1.45;;
39994;SDS011;25686;51.908;10.418;2023-06-04T11:04:58;2.25;;;1.23;;
39994;SDS011;25686;51.908;10.418;2023-06-04T11:07:02;4.53;;;1.48;;
39994;SDS011;25686;51.908;10.418;2023-06-04T11:09:08;6.22;;;1.50;;
39994;SDS011;25686;51.908;10.418;2023-06-04T11:11:16;1.58;;;1.20;;
39994;SDS011;25686;51.908;10.418;2023-06-04T11:13:22;1.55;;;1.30;;
39994;SDS011;25686;51.908;10.418;2023-06-04T11:15:23;2.88;;;1.20;;
39994;SDS011;25686;51.908;10.418;2023-06-04T11:17:24;4.10;;;1.30;;
39994;SDS011;25686;51.908;10.418;2023-06-04T11:19:30;3.95;;;1.33;;
39994;SDS011;25686;51.908;10.418;2023-06-04T11:21:35;4.82;;;1.60;;
39994;SDS011;25686;51.908;10.418;2023-06-04T11:23:37;5.13;;;1.50;;
39994;SDS011;25686;51.908;10.418;2023-06-04T11:25:38;2.55;;;1.45;;
39994;SDS011;25686;51.908;10.418;2023-06-04T11:27:40;4.90;;;1.30;;
39994;SDS011;25686;51.908;10.418;2023-06-04T11:29:41;4.30;;;1.65;;
39994;SDS011;25686;51.908;10.418;2023-06-04T11:31:46;5.45;;;1.48;;
39994;SDS011;25686;51.908;10.418;2023-06-04T11:33:47;5.30;;;1.55;;
39994;SDS011;25686;51.908;10.418;2023-06-04T11:35:48;8.57;;;1.48;;
39994;SDS011;25686;51.908;10.418;2023-06-04T11:37:53;4.88;;;1.42;;
39994;SDS011;25686;51.908;10.418;2023-06-04T11:39:54;3.45;;;1.77;;
39994;SDS011;25686;51.908;10.418;2023-06-04T11:41:55;5.60;;;1.60;;
39994;SDS011;25686;51.908;10.418;2023-06-04T11:43:57;2.50;;;1.50;;
39994;SDS011;25686;51.908;10.418;2023-06-04T11:45:58;3.78;;;1.70;;
39994;SDS011;25686;51.908;10.418;2023-06-04T11:48:02;6.93;;;1.60;;
39994;SDS011;25686;51.908;10.418;2023-06-04T11:50:04;1.73;;;1.30;;
39994;SDS011;25686;51.908;10.418;2023-06-04T11:52:08;2.35;;;1.30;;
39994;SDS011;25686;51.908;10.418;2023-06-04T11:54:10;6.22;;;1.50;;
39994;SDS011;25686;51.908;10.418;2023-06-04T11:56:11;2.60;;;1.30;;
39994;SDS011;25686;51.908;10.418;2023-06-04T11:58:12;3.33;;;1.48;;
39994;SDS011;25686;51.908;10.418;2023-06-04T12:00:13;3.45;;;1.38;;
39994;SDS011;25686;51.908;10.418;2023-06-04T12:02:15;5.57;;;1.50;;
39994;SDS011;25686;51.908;10.418;2023-06-04T12:04:17;2.55;;;1.40;;
39994;SDS011;25686;51.908;10.418;2023-06-04T12:06:19;2.58;;;1.35;;